Mount Isa Airport
YBMA : now visible

Airfield :











YOU CAN JOIN US ON...

 
LOGIN :

Register | Disclaimer

   EN    FR    IT 

 









Legend :    VFR   Marginal VFR   IFR   Intensive IFR   Very Intensive IFR
Visi :
Ceiling :
>= 8 km
>= 3000ft
5 to 8 km
1000 to 3000 ft
1500m to 5 km
500 to 1000 ft
800 to 1500m
200 to 500 ft
< 800m
< 200 ft
Symbols :   Thunderstorms  Fog  Heavy snow  Heavy precipitations  Wind > 20 kt






- Airport Elevation : 1121 ft
- IATA code : ISA


YBMA - Mount Isa

CURRENT METAR :
  • 280630Z AUTO 23008KT 9999 // NCD 37/08 Q1007 RF00.0/000.0

EXPIRED METARs :
  • 280600Z AUTO 21011KT 9999 // NCD 37/08 Q1007
  • 280530Z AUTO 22009KT 9999 // NCD 37/10 Q1007 RF00.0/000.0
  • 280500Z AUTO 19005KT 150V220 9999 // NCD 36/10 Q1008
  • 280430Z AUTO 17008KT 9999 // NCD 36/08 Q1008 RF00.0/000.0
  • 280400Z AUTO 16009KT 9999 // NCD 35/10 Q1009
  • 280330Z AUTO 20008KT 9999 // NCD 36/10 Q1009 RF00.0/000.0

TAF TAF YBMA
Valid from the 28 at 06:00 until the 28 at 18:00 UTC


280511Z 2806/2818 19008KT CAVOK



MET'MAP, your aeronautical weather chart ! - Copyright ORBIFLY December 2007 - Disclaimer

ORBIFLY MET'MAP TEAM :

Programming & Development : Alexandra Zaïnal
Concept & original design : Baudouin d'Aumeries
Assistance for programming : Marc-Olivier Méhu
Technical & hardware support : Manuel Goepfert

Contact : metmap@orbifly.com




SOURCES & CREDITS :

   NOAA       Earth
Advisory